Time;durP1;ratioP1;P1;durP2;ratioP2;P2;SDS_P1;SDS_P2;PMS_P1;PMS_P2;Temp;Humidity;BMP_temperature;BMP_pressure;BME280_temperature;BME280_humidity;BME280_pressure;Samples;Min_cycle;Max_cycle;Signal;HPM_P1;HPM_P2
2022/05/31 00:02:01;;;;;;;10.43;9.80;;;;;;;16.26;91.31;92890.13;5069453;28;20292;-77
2022/05/31 00:04:27;;;;;;;10.83;10.10;;;;;;;16.30;90.83;92890.28;5069452;28;20202;-77
2022/05/31 00:06:52;;;;;;;11.73;10.83;;;;;;;16.18;91.67;92890.09;5069204;28;21246;-77
2022/05/31 00:09:18;;;;;;;10.93;10.23;;;;;;;16.14;92.05;92879.38;5070102;28;20193;-77
2022/05/31 00:11:43;;;;;;;11.77;10.80;;;;;;;16.02;92.70;92879.19;5052599;28;20306;-77
2022/05/31 00:14:11;;;;;;;11.30;10.53;;;;;;;15.98;92.95;92880.91;5066877;28;20294;-77
2022/05/31 00:16:36;;;;;;;11.17;10.47;;;;;;;15.81;92.38;92860.53;5068832;28;20256;-77
2022/05/31 00:19:03;;;;;;;11.00;10.40;;;;;;;15.96;92.18;92883.06;5067975;28;20189;-77
2022/05/31 00:22:01;;;;;;;11.90;10.90;;;;;;;15.96;92.30;92880.41;5069613;28;20226;-78
2022/05/31 00:24:27;;;;;;;11.73;10.83;;;;;;;15.86;92.48;92881.47;5068574;28;20196;-77
2022/05/31 00:26:52;;;;;;;11.93;11.03;;;;;;;15.82;92.73;92887.63;5069371;28;20221;-77
2022/05/31 00:29:18;;;;;;;11.73;10.60;;;;;;;15.89;92.05;92880.09;5068860;28;20312;-77
2022/05/31 00:31:46;;;;;;;11.27;10.30;;;;;;;15.81;91.73;92868.41;5069650;28;20497;-77
2022/05/31 00:34:13;;;;;;;12.27;11.33;;;;;;;15.76;92.24;92868.56;5069366;28;20182;-77
2022/05/31 00:36:42;;;;;;;11.30;10.60;;;;;;;15.81;91.63;92871.06;5069643;28;20281;-78
2022/05/31 00:39:08;;;;;;;11.57;10.67;;;;;;;15.69;92.28;92862.16;5068001;28;20190;-77
2022/05/31 00:41:34;;;;;;;12.30;11.30;;;;;;;15.71;92.67;92875.81;5068825;28;20232;-78
2022/05/31 00:44:09;;;;;;;11.20;10.40;;;;;;;15.73;92.11;92871.81;5069939;28;20223;-77
2022/05/31 00:46:51;;;;;;;11.30;10.50;;;;;;;15.78;91.23;92870.91;5067035;28;20238;-77
2022/05/31 00:49:31;;;;;;;10.50;9.70;;;;;;;15.74;90.92;92875.22;5066789;28;20182;-78
2022/05/31 00:52:00;;;;;;;10.53;9.63;;;;;;;15.60;91.02;92870.03;5068686;28;20221;-77
2022/05/31 00:54:30;;;;;;;11.23;10.53;;;;;;;15.59;90.51;92878.25;5069797;28;20170;-77
2022/05/31 00:56:57;;;;;;;11.03;10.23;;;;;;;15.67;89.70;92885.41;5069231;28;20221;-77
2022/05/31 00:59:43;;;;;;;11.27;10.40;;;;;;;15.76;89.21;92879.09;5068296;28;20189;-77
2022/05/31 01:02:10;;;;;;;11.03;10.10;;;;;;;15.73;88.83;92886.81;5068360;28;20221;-78
2022/05/31 01:04:49;;;;;;;11.43;10.63;;;;;;;15.78;89.06;92878.81;5066525;28;20219;-77
2022/05/31 01:07:16;;;;;;;11.37;10.20;;;;;;;15.82;89.19;92882.38;5068361;28;20943;-77
2022/05/31 01:09:41;;;;;;;11.10;10.40;;;;;;;15.76;89.83;92883.59;5065477;28;20261;-77
2022/05/31 01:12:07;;;;;;;11.50;10.60;;;;;;;15.67;90.17;92886.16;5068904;28;20229;-77
2022/05/31 01:14:34;;;;;;;11.00;10.30;;;;;;;15.71;89.68;92891.63;5069241;28;20212;-77
2022/05/31 01:17:06;;;;;;;10.70;10.07;;;;;;;15.71;89.74;92894.25;5068363;28;20229;-77
2022/05/31 01:22:47;;;;;;;11.53;10.60;;;;;;;15.75;89.13;92898.59;5007566;28;20264;-77
2022/05/31 01:25:25;;;;;;;11.40;10.30;;;;;;;15.65;89.13;92898.09;5061380;28;20254;-77
2022/05/31 01:27:56;;;;;;;11.53;10.73;;;;;;;15.64;89.39;92901.81;5068196;28;20252;-83
2022/05/31 01:30:22;;;;;;;11.23;10.50;;;;;;;15.63;89.80;92894.97;5066662;28;20293;-75
2022/05/31 01:33:38;;;;;;;11.73;11.00;;;;;;;15.75;89.36;92885.44;5068079;28;20169;-74
2022/05/31 01:36:09;;;;;;;10.80;10.10;;;;;;;15.59;89.37;92878.25;4967834;28;20227;-75
2022/05/31 01:39:00;;;;;;;10.53;9.83;;;;;;;15.56;90.06;92884.09;4968593;28;20185;-75
2022/05/31 01:41:34;;;;;;;10.50;9.90;;;;;;;15.59;90.15;92894.03;5044248;28;20236;-75
2022/05/31 01:44:04;;;;;;;11.30;10.43;;;;;;;15.61;90.30;92890.00;5068639;28;20189;-74
2022/05/31 01:46:33;;;;;;;10.70;10.03;;;;;;;15.33;90.18;92854.38;5064403;28;20301;-75
2022/05/31 01:49:06;;;;;;;10.40;9.80;;;;;;;15.60;90.63;92895.56;5048549;28;20197;-75
2022/05/31 01:51:32;;;;;;;11.50;10.73;;;;;;;15.34;91.44;92871.72;5047410;28;20225;-74
2022/05/31 01:53:58;;;;;;;11.10;10.10;;;;;;;15.21;92.24;92874.41;5048503;28;20224;-75
2022/05/31 01:56:23;;;;;;;11.13;10.43;;;;;;;15.42;91.90;92897.34;5048092;28;20222;-74
2022/05/31 01:58:52;;;;;;;10.93;10.23;;;;;;;15.52;91.09;92893.66;5047620;28;20905;-74
2022/05/31 02:01:18;;;;;;;11.30;10.40;;;;;;;15.49;91.38;92883.75;5048052;28;20234;-75
2022/05/31 02:03:44;;;;;;;11.60;10.50;;;;;;;15.44;91.74;92886.53;5048352;28;20170;-75
2022/05/31 02:06:34;;;;;;;12.20;10.83;;;;;;;15.45;91.66;92885.44;5047226;28;20240;-75
2022/05/31 02:09:00;;;;;;;10.70;9.90;;;;;;;15.38;91.72;92870.06;5048529;28;20178;-88
2022/05/31 02:11:26;;;;;;;11.27;10.57;;;;;;;15.41;91.28;92866.06;5047279;28;20229;-88
2022/05/31 02:13:52;;;;;;;10.90;10.10;;;;;;;15.37;90.93;92868.50;5046923;28;20205;-83
2022/05/31 02:16:18;;;;;;;11.10;10.07;;;;;;;15.53;91.10;92885.47;5048338;28;20229;-86
2022/05/31 02:19:29;;;;;;;11.83;10.97;;;;;;;15.46;90.66;92871.19;5046502;28;20170;-85
2022/05/31 02:21:35;;;;;;;10.60;9.80;;;;;;;15.45;90.76;92873.06;5043130;28;20221;-86
2022/05/31 02:24:21;;;;;;;11.13;10.07;;;;;;;15.38;91.64;92896.38;5048809;28;20178;-85
2022/05/31 02:26:47;;;;;;;11.43;10.40;;;;;;;15.25;92.33;92904.31;5047859;28;20282;-85
2022/05/31 02:29:15;;;;;;;10.80;10.10;;;;;;;15.20;93.42;92896.53;5047910;28;20194;-86
2022/05/31 02:31:41;;;;;;;11.00;10.10;;;;;;;15.19;94.33;92902.88;5048475;28;20256;-86
2022/05/31 02:34:09;;;;;;;11.63;10.63;;;;;;;15.17;94.10;92902.41;5047895;28;20208;-86
2022/05/31 02:36:35;;;;;;;13.20;10.20;;;;;;;15.17;93.94;92899.78;5047458;28;20225;-85
2022/05/31 02:39:01;;;;;;;10.57;9.87;;;;;;;15.18;94.26;92898.69;5048311;28;20182;-85
2022/05/31 02:41:29;;;;;;;10.10;9.50;;;;;;;15.08;93.48;92872.63;5047699;28;20233;-84
2022/05/31 02:43:55;;;;;;;10.97;9.97;;;;;;;15.12;93.34;92884.09;5047981;28;20241;-80
2022/05/31 02:46:22;;;;;;;10.50;9.60;;;;;;;15.20;93.86;92899.16;5048882;28;20218;-85
2022/05/31 02:48:48;;;;;;;11.20;10.40;;;;;;;15.22;93.58;92902.28;5068394;28;20174;-84
2022/05/31 02:51:13;;;;;;;11.37;10.57;;;;;;;15.08;94.23;92896.31;5068102;28;20213;-84
2022/05/31 02:53:38;;;;;;;12.70;11.47;;;;;;;14.78;96.29;92889.09;5071729;28;20256;-84
2022/05/31 02:56:04;;;;;;;11.40;10.60;;;;;;;14.95;95.46;92899.75;5071967;28;20209;-85
2022/05/31 02:58:30;;;;;;;11.60;10.57;;;;;;;14.91;94.87;92883.78;5071938;28;20201;-86
2022/05/31 03:00:55;;;;;;;11.13;10.40;;;;;;;15.14;94.17;92909.03;5071513;28;20240;-85
2022/05/31 03:03:21;;;;;;;11.40;10.70;;;;;;;15.10;94.79;92915.97;5071497;28;20197;-85
2022/05/31 03:05:46;;;;;;;11.50;10.60;;;;;;;15.21;94.04;92911.22;5069400;28;20375;-85
2022/05/31 03:08:12;;;;;;;10.57;9.67;;;;;;;15.18;93.11;92891.59;5071690;28;20204;-86
2022/05/31 03:10:45;;;;;;;10.63;9.57;;;;;;;15.51;92.27;92918.44;5070938;28;20313;-82
2022/05/31 03:13:17;;;;;;;10.27;9.60;;;;;;;15.48;91.86;92922.47;5071383;28;20649;-86
2022/05/31 03:15:43;;;;;;;10.63;10.03;;;;;;;16.01;89.23;92922.44;5070470;28;20224;-84
2022/05/31 03:18:13;;;;;;;10.37;9.77;;;;;;;16.62;85.20;92922.34;5069686;28;20177;-83
2022/05/31 03:20:41;;;;;;;10.57;9.73;;;;;;;17.10;82.64;92922.25;5070719;28;20221;-85
2022/05/31 03:23:09;;;;;;;10.53;9.20;;;;;;;17.28;80.99;92924.56;5071008;28;20203;-84
2022/05/31 03:25:38;;;;;;;10.60;9.90;;;;;;;17.92;77.65;92927.28;5071198;28;20227;-85
2022/05/31 03:28:06;;;;;;;10.93;10.13;;;;;;;18.17;76.48;92905.28;5067690;28;20189;-85
2022/05/31 03:30:33;;;;;;;11.70;10.00;;;;;;;18.77;73.87;92917.13;5070087;28;20290;-85
2022/05/31 03:33:01;;;;;;;10.77;9.97;;;;;;;19.08;72.78;92938.72;5069645;28;20203;-83
2022/05/31 03:35:27;;;;;;;9.57;8.97;;;;;;;18.68;74.38;92939.44;5070548;28;20300;-85
2022/05/31 03:37:52;;;;;;;10.27;9.43;;;;;;;19.21;72.11;92921.03;5069581;28;20212;-85
2022/05/31 03:43:04;;;;;;;10.23;9.53;;;;;;;20.10;68.45;92945.03;5070539;28;20201;-84
2022/05/31 03:45:38;;;;;;;10.73;9.93;;;;;;;21.52;63.20;92953.66;5069801;28;20303;-84
2022/05/31 03:48:05;;;;;;;10.33;9.63;;;;;;;21.80;61.44;92954.47;5053798;28;21083;-85
2022/05/31 03:50:31;;;;;;;11.80;10.00;;;;;;;20.84;64.38;92965.25;5049966;28;20228;-86
2022/05/31 03:52:56;;;;;;;14.60;9.40;;;;;;;20.64;65.44;92957.06;5050351;28;20204;-81
2022/05/31 03:55:22;;;;;;;9.20;8.60;;;;;;;21.58;62.77;92969.03;5050772;28;20224;-85
2022/05/31 03:57:49;;;;;;;10.82;10.13;;;;;;;22.02;60.93;92954.69;5050918;28;20188;-86
2022/05/31 04:00:15;;;;;;;10.67;9.77;;;;;;;21.70;62.31;92971.63;5051098;28;20189;-85
2022/05/31 04:02:41;;;;;;;11.23;10.27;;;;;;;20.73;65.57;92963.03;5049453;28;20183;-74
2022/05/31 04:05:07;;;;;;;12.37;11.20;;;;;;;20.52;67.20;92965.00;5048092;28;20195;-76
2022/05/31 04:07:32;;;;;;;12.13;10.73;;;;;;;19.97;69.64;92962.00;5050036;28;20189;-73
2022/05/31 04:09:58;;;;;;;12.07;10.97;;;;;;;19.52;71.61;92955.09;5047660;28;20240;-73
2022/05/31 04:12:23;;;;;;;10.67;9.87;;;;;;;19.90;71.10;92953.81;5049265;28;20254;-72
2022/05/31 04:14:49;;;;;;;11.03;10.03;;;;;;;19.38;72.49;92967.84;5048863;28;20237;-75
2022/05/31 04:17:14;;;;;;;11.03;10.17;;;;;;;18.81;75.59;92959.59;5048555;28;20220;-73
2022/05/31 04:19:40;;;;;;;12.53;11.43;;;;;;;18.49;78.06;92962.88;5046921;28;20176;-74
2022/05/31 04:22:05;;;;;;;11.50;10.37;;;;;;;18.32;78.42;92936.50;5046833;28;20223;-73
2022/05/31 04:24:31;;;;;;;10.63;9.80;;;;;;;17.62;82.13;92960.00;5049206;28;20218;-76
2022/05/31 04:26:56;;;;;;;11.90;10.93;;;;;;;18.09;80.58;92962.38;5049368;28;20456;-78
2022/05/31 04:29:21;;;;;;;15.27;12.00;;;;;;;18.11;79.41;92933.75;5048296;28;20274;-73
2022/05/31 04:31:48;;;;;;;10.47;9.67;;;;;;;18.67;77.65;92959.84;5048322;28;20230;-72
2022/05/31 04:34:14;;;;;;;12.20;11.30;;;;;;;18.75;77.27;92966.97;5046921;28;20188;-73
2022/05/31 04:36:39;;;;;;;11.30;10.43;;;;;;;18.94;77.89;92985.06;5049606;28;20317;-73
2022/05/31 04:39:05;;;;;;;11.87;10.87;;;;;;;19.07;77.25;92986.69;5049768;28;20229;-72
2022/05/31 04:41:31;;;;;;;11.47;10.67;;;;;;;19.32;76.10;92985.78;5049527;28;20235;-74
2022/05/31 04:43:58;;;;;;;12.03;10.83;;;;;;;19.18;76.50;92956.88;5048124;28;20198;-79
2022/05/31 04:46:27;;;;;;;12.97;10.87;;;;;;;19.35;75.33;92981.72;5051278;28;20232;-72
2022/05/31 04:48:54;;;;;;;13.20;11.80;;;;;;;19.42;74.83;92980.09;5069285;28;20188;-74
2022/05/31 04:51:19;;;;;;;12.00;11.07;;;;;;;19.58;75.32;92983.69;5067906;28;20224;-74
2022/05/31 04:53:44;;;;;;;13.27;10.93;;;;;;;19.68;75.27;92985.97;5067854;28;20195;-75
2022/05/31 04:56:12;;;;;;;11.97;10.90;;;;;;;19.66;75.36;92990.03;5066751;28;20240;-75
2022/05/31 04:58:38;;;;;;;12.37;11.13;;;;;;;19.45;75.47;92978.66;5067215;28;20321;-75
2022/05/31 05:01:07;;;;;;;12.37;11.17;;;;;;;19.75;74.82;92996.03;5068483;28;20232;-74
2022/05/31 05:03:34;;;;;;;13.43;10.97;;;;;;;19.68;75.39;92998.44;5067632;28;20281;-75
2022/05/31 05:06:06;;;;;;;12.27;11.27;;;;;;;19.49;75.50;93001.53;5067649;28;20239;-75
2022/05/31 05:08:32;;;;;;;13.73;11.23;;;;;;;20.22;73.03;93003.41;5068347;28;20260;-75
2022/05/31 05:11:03;;;;;;;11.97;10.87;;;;;;;20.89;70.55;93005.59;5068505;28;20224;-75
2022/05/31 05:13:29;;;;;;;12.10;10.93;;;;;;;20.52;71.37;93014.63;5065756;28;20191;-75
2022/05/31 05:15:55;;;;;;;10.53;9.67;;;;;;;20.31;71.92;93006.75;5067479;28;20237;-75
2022/05/31 05:18:21;;;;;;;11.90;10.87;;;;;;;19.85;72.81;92999.06;5067078;28;20176;-75
2022/05/31 05:20:47;;;;;;;13.10;11.13;;;;;;;19.81;75.08;93000.03;5067048;28;20224;-75
2022/05/31 05:23:12;;;;;;;11.47;10.53;;;;;;;20.02;74.77;93003.41;5067763;28;20270;-75
2022/05/31 05:25:38;;;;;;;12.73;11.80;;;;;;;20.46;73.13;93003.47;5067177;28;20223;-75
2022/05/31 05:30:38;;;;;;;13.33;11.03;;;;;;;20.46;71.81;93006.13;5068555;28;20188;-74
2022/05/31 05:30:50;;;;;;;11.35;10.32;;;;;;;22.67;64.09;93013.78;5069001;28;20291;-75
2022/05/31 05:33:15;;;;;;;11.77;10.23;;;;;;;26.20;53.71;93035.00;5066308;28;20192;-75
2022/05/31 05:35:41;;;;;;;10.93;9.88;;;;;;;29.59;43.59;93040.09;5068277;28;20223;-75
2022/05/31 05:38:09;;;;;;;10.00;9.20;;;;;;;31.54;38.33;93040.84;5068423;28;20226;-75
2022/05/31 05:40:35;;;;;;;10.63;9.45;;;;;;;30.92;38.40;93027.38;5067690;28;20225;-74
2022/05/31 05:43:01;;;;;;;10.27;9.43;;;;;;;33.78;34.27;93050.84;5067789;28;20214;-75
2022/05/31 05:45:26;;;;;;;10.20;9.25;;;;;;;34.45;32.16;93042.31;5068280;28;20289;-75
2022/05/31 05:47:52;;;;;;;9.93;8.98;;;;;;;33.38;33.79;93049.94;5068273;28;20224;-75
2022/05/31 05:50:17;;;;;;;9.35;8.50;;;;;;;35.47;29.85;93051.78;5067959;28;20225;-75
2022/05/31 05:52:48;;;;;;;10.05;9.15;;;;;;;35.16;30.53;93049.78;5068855;28;20196;-75
2022/05/31 05:55:14;;;;;;;9.60;8.80;;;;;;;34.51;31.05;93029.81;5068825;28;20216;-77
2022/05/31 05:57:39;;;;;;;8.90;8.05;;;;;;;35.95;28.52;93059.22;5067990;28;20182;-78
2022/05/31 06:00:06;;;;;;;9.43;8.52;;;;;;;35.49;29.66;93026.91;5069320;28;20217;-84
2022/05/31 06:02:33;;;;;;;8.65;7.85;;;;;;;34.79;30.53;93050.19;5069297;28;20248;-82
2022/05/31 06:25:13;;;;;;;16.40;14.68;;;;;;;34.76;30.57;93051.03;5458866;23;20281;-79
2022/05/31 06:33:22;;;;;;;14.13;12.63;;;;;;;35.09;29.03;93050.72;5984277;22;21793;-81
2022/05/31 06:35:48;;;;;;;8.20;7.45;;;;;;;36.33;27.72;93056.72;5071810;28;20271;-84
2022/05/31 06:40:52;;;;;;;10.48;8.43;;;;;;;32.26;33.51;93041.31;5079411;26;20548;-84
2022/05/31 06:43:18;;;;;;;9.10;8.38;;;;;;;30.05;38.71;93023.09;5111208;28;20164;-70
2022/05/31 06:45:43;;;;;;;10.00;8.95;;;;;;;28.69;42.09;93020.03;5111665;28;20363;-69
2022/05/31 06:48:09;;;;;;;10.30;9.40;;;;;;;27.81;45.05;93019.63;5107810;28;20748;-70
2022/05/31 06:50:34;;;;;;;10.32;9.38;;;;;;;24.79;53.39;93009.97;5110449;28;20238;-69
2022/05/31 06:58:27;;;;;;;10.73;9.77;;;;;;;24.13;55.98;93012.91;5110185;28;20202;-69
2022/05/31 07:00:53;;;;;;;15.10;11.05;;;;;;;22.94;60.53;93008.34;5108345;28;20245;-70
2022/05/31 07:03:18;;;;;;;11.48;10.52;;;;;;;22.89;60.63;92990.00;5108975;28;20180;-70
2022/05/31 07:05:44;;;;;;;11.48;10.40;;;;;;;23.32;59.62;92997.06;5109796;28;20215;-70
2022/05/31 07:08:09;;;;;;;12.00;10.88;;;;;;;24.02;56.14;93005.81;5107219;28;20645;-70
2022/05/31 07:10:35;;;;;;;12.88;10.23;;;;;;;23.81;56.47;93000.03;5111456;28;20310;-70
2022/05/31 07:13:00;;;;;;;11.43;9.75;;;;;;;23.36;58.55;93009.34;5111636;28;20187;-70
2022/05/31 07:15:26;;;;;;;11.32;10.43;;;;;;;23.35;58.17;93012.38;5110753;28;20223;-71
2022/05/31 07:17:51;;;;;;;11.95;10.95;;;;;;;22.92;59.31;93013.28;5106759;28;20175;-70
2022/05/31 07:20:17;;;;;;;10.98;10.07;;;;;;;22.34;60.94;93003.41;5108021;28;20223;-69
2022/05/31 07:22:42;;;;;;;10.95;9.93;;;;;;;23.05;59.27;93006.72;5111460;28;20199;-70
2022/05/31 07:25:09;;;;;;;10.75;9.90;;;;;;;23.20;60.38;93005.16;5110593;28;20191;-69
2022/05/31 07:27:35;;;;;;;11.20;10.10;;;;;;;22.70;60.13;92997.88;5111523;28;20201;-70
2022/05/31 07:30:01;;;;;;;10.95;10.00;;;;;;;23.18;59.08;93018.81;5109502;28;20220;-70
2022/05/31 07:32:26;;;;;;;11.13;10.05;;;;;;;23.17;59.54;92992.53;5109362;28;20217;-70
2022/05/31 07:34:52;;;;;;;11.05;10.15;;;;;;;23.73;59.05;93007.91;5093080;28;20193;-69
2022/05/31 07:37:17;;;;;;;11.13;10.23;;;;;;;23.71;57.97;93015.47;5110603;28;20230;-69
2022/05/31 08:48:55;;;;;;;12.13;11.20;;;;;;;23.94;56.91;92988.13;5143760;27;21106;-71
2022/05/31 08:51:52;;;;;;;12.63;10.88;;;;;;;24.14;56.07;92979.00;5127849;28;20194;-73
2022/05/31 08:57:14;;;;;;;11.63;10.52;;;;;;;24.71;51.49;92985.03;5126799;28;20235;-71
2022/05/31 08:59:50;;;;;;;11.30;10.50;;;;;;;24.39;53.41;92970.31;5128708;28;20192;-72
2022/05/31 09:02:31;;;;;;;11.10;10.35;;;;;;;24.32;52.18;92978.22;5125536;28;20173;-71
2022/05/31 09:05:03;;;;;;;10.95;10.02;;;;;;;24.23;53.10;92975.00;5123018;28;20212;-73
2022/05/31 09:07:46;;;;;;;13.05;11.15;;;;;;;24.69;52.97;92973.94;5125003;28;20177;-71
2022/05/31 09:10:34;;;;;;;11.50;10.40;;;;;;;24.25;53.31;92983.41;5126707;28;20178;-72
2022/05/31 09:13:09;;;;;;;11.15;10.23;;;;;;;24.52;53.18;92979.72;5124863;28;20204;-71
2022/05/31 09:15:36;;;;;;;10.88;10.07;;;;;;;24.39;50.16;92985.56;5126485;28;20184;-72
2022/05/31 09:18:16;;;;;;;11.02;10.13;;;;;;;24.21;51.61;92977.25;5128738;28;20257;-72
2022/05/31 09:20:46;;;;;;;12.20;11.27;;;;;;;23.78;54.58;92978.28;5125484;27;20186;-72
2022/05/31 09:23:18;;;;;;;12.07;10.90;;;;;;;24.30;51.98;92977.00;5121978;28;20228;-73
2022/05/31 09:25:50;;;;;;;11.25;10.07;;;;;;;24.63;51.14;92964.66;5126353;28;20216;-74
2022/05/31 09:28:35;;;;;;;10.80;10.07;;;;;;;24.14;52.12;92973.66;5125719;28;20182;-71
2022/05/31 09:31:05;;;;;;;11.70;10.65;;;;;;;24.49;50.92;92951.06;5119623;28;20187;-71
2022/05/31 09:33:39;;;;;;;12.48;10.70;;;;;;;24.91;50.22;92970.47;5049563;28;20241;-71
2022/05/31 09:36:17;;;;;;;12.15;11.18;;;;;;;24.89;51.46;92966.59;5059072;28;20441;-73
2022/05/31 09:39:11;;;;;;;10.88;10.10;;;;;;;24.88;51.58;92962.41;5064579;28;20205;-72
2022/05/31 09:41:58;;;;;;;11.77;10.68;;;;;;;25.24;50.42;92962.59;5063544;28;20232;-72
2022/05/31 09:44:28;;;;;;;12.13;11.07;;;;;;;25.08;50.72;92961.19;5061553;28;20200;-72
2022/05/31 09:47:02;;;;;;;13.25;10.70;;;;;;;25.02;53.56;92949.25;5063347;28;20237;-74
2022/05/31 09:49:39;;;;;;;11.85;10.68;;;;;;;25.16;51.04;92941.44;5049814;28;20221;-75
2022/05/31 09:52:14;;;;;;;12.63;11.43;;;;;;;24.94;51.31;92947.59;5048291;28;20798;-74
2022/05/31 09:58:01;;;;;;;14.02;11.32;;;;;;;24.96;51.72;92962.16;5046930;28;20244;-74
2022/05/31 10:00:27;;;;;;;11.88;10.98;;;;;;;25.03;51.27;92948.91;5045900;28;20218;-74
2022/05/31 10:02:58;;;;;;;10.85;9.95;;;;;;;25.17;49.97;92953.66;5047337;28;20240;-74
2022/05/31 10:05:24;;;;;;;11.93;11.13;;;;;;;24.53;51.45;92956.47;5048043;28;20196;-74
2022/05/31 10:07:49;;;;;;;11.68;10.65;;;;;;;24.77;51.94;92956.13;5047351;28;20239;-74
2022/05/31 10:10:24;;;;;;;11.27;10.38;;;;;;;25.15;49.95;92964.72;5049214;28;20225;-75
2022/05/31 10:12:56;;;;;;;10.73;9.93;;;;;;;25.05;47.72;92948.53;5049942;28;20616;-73
2022/05/31 10:15:39;;;;;;;11.80;10.80;;;;;;;25.54;46.63;92957.31;5050131;28;20209;-73
2022/05/31 10:18:08;;;;;;;11.20;10.13;;;;;;;25.55;48.04;92955.38;5049008;28;20259;-74
2022/05/31 10:20:34;;;;;;;14.07;10.98;;;;;;;25.63;46.82;92941.75;5049464;28;20253;-73
2022/05/31 10:23:04;;;;;;;11.43;10.57;;;;;;;25.60;49.36;92942.47;5049141;28;21053;-74
2022/05/31 10:25:34;;;;;;;11.10;10.10;;;;;;;26.09;46.04;92943.06;5047759;28;20182;-72
2022/05/31 10:28:12;;;;;;;10.93;10.00;;;;;;;26.05;47.67;92946.84;5048355;28;20233;-74
2022/05/31 10:30:39;;;;;;;11.35;10.50;;;;;;;25.68;46.31;92944.09;5049895;28;20180;-74
2022/05/31 10:33:21;;;;;;;10.98;10.07;;;;;;;25.27;47.17;92950.41;5048319;28;20228;-75
2022/05/31 10:36:05;;;;;;;11.07;10.27;;;;;;;25.39;47.29;92942.19;5047265;28;20207;-74
2022/05/31 10:38:32;;;;;;;11.35;10.35;;;;;;;25.06;48.77;92940.16;5048825;28;20233;-74
2022/05/31 10:41:01;;;;;;;11.40;10.55;;;;;;;25.39;46.85;92931.47;5049869;28;20212;-73
2022/05/31 10:43:48;;;;;;;10.60;9.90;;;;;;;24.97;50.06;92936.19;5049532;28;20236;-75
2022/05/31 10:46:27;;;;;;;11.63;10.57;;;;;;;25.05;46.86;92932.50;5047792;28;20202;-75
2022/05/31 10:48:59;;;;;;;10.77;10.00;;;;;;;25.14;46.84;92925.00;5048551;28;20241;-73
2022/05/31 10:51:37;;;;;;;12.18;10.90;;;;;;;25.16;48.71;92925.41;5048071;28;20317;-74
2022/05/31 10:54:05;;;;;;;11.48;10.35;;;;;;;24.77;47.03;92921.38;5041970;28;20204;-77
2022/05/31 10:56:41;;;;;;;11.13;10.30;;;;;;;25.27;48.45;92912.97;5048068;28;20220;-74
2022/05/31 10:59:16;;;;;;;11.75;10.75;;;;;;;25.59;49.76;92914.16;5049927;28;20176;-74
2022/05/31 11:01:59;;;;;;;11.90;10.90;;;;;;;26.00;46.42;92915.84;5052297;28;20229;-74
2022/05/31 11:04:56;;;;;;;10.82;9.85;;;;;;;25.83;46.11;92913.72;5068324;28;20323;-74
2022/05/31 11:07:28;;;;;;;10.15;9.45;;;;;;;26.00;46.70;92910.50;5067868;28;20240;-73
2022/05/31 11:12:46;;;;;;;9.75;9.00;;;;;;;26.19;44.20;92899.59;5070120;28;20299;-73
2022/05/31 11:15:48;;;;;;;10.70;9.60;;;;;;;25.97;45.41;92892.47;5067104;28;20181;-73
2022/05/31 11:18:14;;;;;;;10.07;9.18;;;;;;;26.22;44.78;92890.06;5063605;28;20228;-73
2022/05/31 11:20:59;;;;;;;10.45;9.70;;;;;;;26.49;42.61;92881.50;5069683;28;20206;-75
2022/05/31 11:23:52;;;;;;;9.85;9.15;;;;;;;26.02;46.47;92900.19;5066661;28;20217;-76
2022/05/31 11:26:50;;;;;;;9.65;8.85;;;;;;;25.83;43.79;92886.97;5083149;28;20189;-73
2022/05/31 11:29:35;;;;;;;10.20;9.32;;;;;;;25.84;43.75;92880.47;5066648;28;20194;-73
2022/05/31 11:32:20;;;;;;;10.07;9.25;;;;;;;25.92;45.09;92868.69;5067512;28;21264;-76
2022/05/31 11:35:15;;;;;;;9.05;8.45;;;;;;;25.89;47.73;92874.78;5072716;28;20177;-79
2022/05/31 11:38:08;;;;;;;11.23;10.02;;;;;;;25.87;45.23;92877.06;5045235;28;20256;-74
2022/05/31 11:41:05;;;;;;;10.60;9.80;;;;;;;26.05;44.78;92875.38;5039442;28;20197;-75
2022/05/31 11:43:55;;;;;;;9.07;8.45;;;;;;;26.32;43.84;92866.06;5063499;28;20233;-75
2022/05/31 11:46:50;;;;;;;9.57;8.80;;;;;;;26.42;46.28;92870.75;5067891;28;20240;-75
2022/05/31 11:49:40;;;;;;;10.18;9.25;;;;;;;26.24;46.39;92867.13;5031769;28;20210;-74
2022/05/31 11:52:37;;;;;;;10.23;9.30;;;;;;;26.67;46.68;92863.69;5067551;28;20229;-72
2022/05/31 11:55:30;;;;;;;10.50;9.75;;;;;;;26.54;43.16;92870.44;5067619;28;20188;-71
2022/05/31 11:58:18;;;;;;;9.52;8.68;;;;;;;26.45;42.73;92864.66;5064941;28;20264;-72
2022/05/31 12:00:59;;;;;;;9.73;8.90;;;;;;;26.14;44.25;92854.44;5067279;28;20181;-74
2022/05/31 12:03:52;;;;;;;10.27;9.27;;;;;;;26.36;43.35;92856.16;5062935;28;21075;-73
2022/05/31 12:06:40;;;;;;;9.35;8.65;;;;;;;26.34;42.35;92863.00;5066042;28;20217;-73
2022/05/31 12:09:45;;;;;;;12.77;11.68;;;;;;;26.49;44.06;92856.66;5065784;28;20193;-72
2022/05/31 12:12:20;;;;;;;9.60;8.90;;;;;;;26.66;41.65;92854.09;5061559;28;20224;-73
2022/05/31 12:14:53;;;;;;;9.38;8.63;;;;;;;26.09;41.81;92844.03;5067722;28;20192;-73
2022/05/31 12:17:22;;;;;;;11.23;10.25;;;;;;;26.16;41.55;92846.81;5063559;28;20307;-73
2022/05/31 12:19:59;;;;;;;9.60;8.93;;;;;;;26.08;44.02;92852.44;5063206;28;20198;-73
2022/05/31 12:22:33;;;;;;;9.20;8.65;;;;;;;26.50;40.21;92840.19;5066524;28;20248;-72
2022/05/31 12:25:05;;;;;;;8.50;7.90;;;;;;;26.56;40.67;92852.09;5067754;28;20200;-72
2022/05/31 12:27:40;;;;;;;9.30;8.63;;;;;;;26.38;40.80;92845.81;5065229;28;20232;-72
2022/05/31 12:30:55;;;;;;;9.00;8.40;;;;;;;26.43;40.61;92856.19;5063947;28;20193;-73
2022/05/31 12:33:40;;;;;;;9.18;8.63;;;;;;;26.60;39.62;92836.81;5050818;28;20239;-74
2022/05/31 12:36:09;;;;;;;8.95;8.43;;;;;;;26.43;41.28;92840.13;5064326;28;20208;-74
2022/05/31 12:39:21;;;;;;;9.23;8.35;;;;;;;26.54;40.94;92841.00;5067744;28;20224;-73
2022/05/31 12:41:50;;;;;;;8.60;8.10;;;;;;;26.71;40.37;92836.91;5062193;28;20229;-74
2022/05/31 12:44:30;;;;;;;8.07;7.35;;;;;;;26.85;40.84;92841.63;5067774;28;20189;-74
2022/05/31 12:47:16;;;;;;;8.75;8.23;;;;;;;26.73;40.72;92840.78;5066452;28;20304;-74
2022/05/31 12:50:10;;;;;;;9.90;8.93;;;;;;;26.73;40.41;92838.09;5067010;28;20266;-71
2022/05/31 12:55:00;;;;;;;8.30;7.80;;;;;;;26.39;41.63;92828.63;5066059;28;20196;-72
2022/05/31 12:58:26;;;;;;;8.02;7.53;;;;;;;26.51;40.04;92841.72;5066513;28;20232;-72
2022/05/31 13:00:26;;;;;;;9.63;8.80;;;;;;;26.32;40.79;92836.59;5067234;28;20202;-73
2022/05/31 13:02:54;;;;;;;8.15;7.65;;;;;;;26.76;39.47;92836.56;5067081;28;20793;-73
2022/05/31 13:06:04;;;;;;;8.65;8.13;;;;;;;26.84;38.67;92845.44;5065540;28;20211;-72
2022/05/31 13:08:48;;;;;;;8.73;8.23;;;;;;;26.88;38.84;92841.63;5061715;28;20300;-73
2022/05/31 13:19:43;;;;;;;8.65;8.05;;;;;;;27.48;39.39;92829.34;5046965;28;20194;-71
2022/05/31 13:22:12;;;;;;;8.70;8.00;;;;;;;27.57;37.76;92837.81;5045897;28;20294;-72
2022/05/31 13:24:48;;;;;;;9.43;8.82;;;;;;;27.57;38.84;92832.44;5049560;28;20174;-72
2022/05/31 13:27:21;;;;;;;8.80;8.30;;;;;;;27.56;38.70;92825.53;5050699;28;20237;-73
2022/05/31 13:30:01;;;;;;;9.85;9.30;;;;;;;27.70;36.46;92817.53;5049327;28;20215;-73
2022/05/31 13:32:32;;;;;;;9.25;8.63;;;;;;;27.22;38.92;92820.75;5050019;28;20222;-72
2022/05/31 13:34:58;;;;;;;9.52;8.82;;;;;;;27.14;37.01;92813.81;5050877;28;20194;-73
2022/05/31 13:37:23;;;;;;;7.68;7.28;;;;;;;27.16;36.77;92814.97;5050068;28;20234;-72
2022/05/31 13:39:50;;;;;;;9.07;8.48;;;;;;;27.26;36.88;92819.66;5052116;28;20221;-73
2022/05/31 13:42:34;;;;;;;9.13;8.25;;;;;;;27.40;35.95;92802.84;5048650;28;20229;-72
2022/05/31 13:45:10;;;;;;;8.80;8.20;;;;;;;27.02;36.42;92800.75;5049409;28;20194;-72
2022/05/31 13:47:46;;;;;;;8.95;8.35;;;;;;;26.79;37.40;92814.41;5049376;28;20245;-72
2022/05/31 13:50:18;;;;;;;8.10;7.70;;;;;;;26.56;38.51;92811.94;5051063;28;20186;-72
2022/05/31 13:52:49;;;;;;;8.63;8.18;;;;;;;26.34;37.74;92820.94;5049070;28;20233;-73
2022/05/31 13:55:22;;;;;;;9.20;8.70;;;;;;;26.09;39.45;92819.19;5050926;28;20197;-74